sensor_id;sensor_type;location;lat;lon;timestamp;temperature;humidity
3940;DHT22;1984;48.312;9.244;2022-11-11T00:00:21;2.90;99.90
3940;DHT22;1984;48.312;9.244;2022-11-11T00:02:47;2.90;99.90
3940;DHT22;1984;48.312;9.244;2022-11-11T00:05:14;2.90;99.90
3940;DHT22;1984;48.312;9.244;2022-11-11T00:07:40;2.90;99.90
3940;DHT22;1984;48.312;9.244;2022-11-11T00:10:06;3.00;99.90
3940;DHT22;1984;48.312;9.244;2022-11-11T00:12:32;2.90;99.90
3940;DHT22;1984;48.312;9.244;2022-11-11T00:14:58;2.90;99.90
3940;DHT22;1984;48.312;9.244;2022-11-11T00:17:23;2.80;99.90
3940;DHT22;1984;48.312;9.244;2022-11-11T00:20:09;2.70;99.90
3940;DHT22;1984;48.312;9.244;2022-11-11T00:22:53;2.60;99.90
3940;DHT22;1984;48.312;9.244;2022-11-11T00:25:37;2.60;99.90
3940;DHT22;1984;48.312;9.244;2022-11-11T00:28:03;2.60;99.90
3940;DHT22;1984;48.312;9.244;2022-11-11T00:30:28;2.50;99.90
3940;DHT22;1984;48.312;9.244;2022-11-11T00:32:54;2.50;99.90
3940;DHT22;1984;48.312;9.244;2022-11-11T00:35:20;2.40;99.90
3940;DHT22;1984;48.312;9.244;2022-11-11T00:38:09;2.50;99.90
3940;DHT22;1984;48.312;9.244;2022-11-11T00:40:35;2.50;99.90
3940;DHT22;1984;48.312;9.244;2022-11-11T00:43:01;2.40;99.90
3940;DHT22;1984;48.312;9.244;2022-11-11T00:45:27;2.40;99.90
3940;DHT22;1984;48.312;9.244;2022-11-11T00:47:52;2.50;99.90
3940;DHT22;1984;48.312;9.244;2022-11-11T00:50:36;2.50;99.90
3940;DHT22;1984;48.312;9.244;2022-11-11T00:53:31;2.40;99.90
3940;DHT22;1984;48.312;9.244;2022-11-11T00:56:05;2.40;99.90
3940;DHT22;1984;48.312;9.244;2022-11-11T00:58:30;2.40;99.90
3940;DHT22;1984;48.312;9.244;2022-11-11T01:00:56;2.30;99.90
3940;DHT22;1984;48.312;9.244;2022-11-11T01:03:23;2.30;99.90
3940;DHT22;1984;48.312;9.244;2022-11-11T01:05:48;2.40;99.90
3940;DHT22;1984;48.312;9.244;2022-11-11T01:08:14;2.40;99.90
3940;DHT22;1984;48.312;9.244;2022-11-11T01:10:39;2.40;99.90
3940;DHT22;1984;48.312;9.244;2022-11-11T01:13:19;2.40;99.90
3940;DHT22;1984;48.312;9.244;2022-11-11T01:16:00;2.30;99.90
3940;DHT22;1984;48.312;9.244;2022-11-11T01:18:26;2.20;99.90
3940;DHT22;1984;48.312;9.244;2022-11-11T01:21:04;2.10;99.90
3940;DHT22;1984;48.312;9.244;2022-11-11T01:23:31;2.10;99.90
3940;DHT22;1984;48.312;9.244;2022-11-11T01:26:05;2.00;99.90
3940;DHT22;1984;48.312;9.244;2022-11-11T01:28:32;2.00;99.90
3940;DHT22;1984;48.312;9.244;2022-11-11T01:31:07;2.00;99.90
3940;DHT22;1984;48.312;9.244;2022-11-11T01:33:33;2.10;99.90
3940;DHT22;1984;48.312;9.244;2022-11-11T01:36:04;2.10;99.90
3940;DHT22;1984;48.312;9.244;2022-11-11T01:38:29;2.10;99.90
3940;DHT22;1984;48.312;9.244;2022-11-11T01:40:55;2.10;99.90
3940;DHT22;1984;48.312;9.244;2022-11-11T01:43:23;2.10;99.90
3940;DHT22;1984;48.312;9.244;2022-11-11T01:45:58;2.10;99.90
3940;DHT22;1984;48.312;9.244;2022-11-11T01:51:44;2.10;99.90
3940;DHT22;1984;48.312;9.244;2022-11-11T01:54:15;2.10;99.90
3940;DHT22;1984;48.312;9.244;2022-11-11T01:56:43;2.10;99.90
3940;DHT22;1984;48.312;9.244;2022-11-11T01:59:13;2.10;99.90
3940;DHT22;1984;48.312;9.244;2022-11-11T02:01:42;2.10;99.90
3940;DHT22;1984;48.312;9.244;2022-11-11T02:04:09;2.10;99.90
3940;DHT22;1984;48.312;9.244;2022-11-11T02:06:57;2.10;99.90
3940;DHT22;1984;48.312;9.244;2022-11-11T02:09:25;2.10;99.90
3940;DHT22;1984;48.312;9.244;2022-11-11T02:11:52;2.00;99.90
3940;DHT22;1984;48.312;9.244;2022-11-11T02:14:45;2.00;99.90
3940;DHT22;1984;48.312;9.244;2022-11-11T02:17:13;1.90;99.90
3940;DHT22;1984;48.312;9.244;2022-11-11T02:19:50;1.90;99.90
3940;DHT22;1984;48.312;9.244;2022-11-11T02:24:50;1.80;99.90
3940;DHT22;1984;48.312;9.244;2022-11-11T02:27:18;1.90;99.90
3940;DHT22;1984;48.312;9.244;2022-11-11T02:29:47;1.90;99.90
3940;DHT22;1984;48.312;9.244;2022-11-11T02:32:13;1.90;99.90
3940;DHT22;1984;48.312;9.244;2022-11-11T02:34:39;1.90;99.90
3940;DHT22;1984;48.312;9.244;2022-11-11T02:37:07;1.90;99.90
3940;DHT22;1984;48.312;9.244;2022-11-11T02:39:34;1.90;99.90
3940;DHT22;1984;48.312;9.244;2022-11-11T02:42:02;1.80;99.90
3940;DHT22;1984;48.312;9.244;2022-11-11T02:44:35;1.90;99.90
3940;DHT22;1984;48.312;9.244;2022-11-11T02:47:00;1.90;99.90
3940;DHT22;1984;48.312;9.244;2022-11-11T02:49:26;1.90;99.90
3940;DHT22;1984;48.312;9.244;2022-11-11T02:51:51;1.90;99.90
3940;DHT22;1984;48.312;9.244;2022-11-11T02:54:17;1.90;99.90
3940;DHT22;1984;48.312;9.244;2022-11-11T02:56:42;1.90;99.90
3940;DHT22;1984;48.312;9.244;2022-11-11T02:59:26;1.80;99.90
3940;DHT22;1984;48.312;9.244;2022-11-11T03:01:52;1.90;99.90
3940;DHT22;1984;48.312;9.244;2022-11-11T03:04:17;1.90;99.90
3940;DHT22;1984;48.312;9.244;2022-11-11T03:06:43;1.90;99.90
3940;DHT22;1984;48.312;9.244;2022-11-11T03:09:08;1.80;99.90
3940;DHT22;1984;48.312;9.244;2022-11-11T03:11:34;1.80;99.90
3940;DHT22;1984;48.312;9.244;2022-11-11T03:14:02;1.70;99.90
3940;DHT22;1984;48.312;9.244;2022-11-11T03:16:28;1.70;99.90
3940;DHT22;1984;48.312;9.244;2022-11-11T03:19:12;1.70;99.90
3940;DHT22;1984;48.312;9.244;2022-11-11T03:21:37;1.80;99.90
3940;DHT22;1984;48.312;9.244;2022-11-11T03:24:03;1.80;99.90
3940;DHT22;1984;48.312;9.244;2022-11-11T03:26:29;1.80;99.90
3940;DHT22;1984;48.312;9.244;2022-11-11T03:28:55;1.70;99.90
3940;DHT22;1984;48.312;9.244;2022-11-11T03:31:21;1.80;99.90
3940;DHT22;1984;48.312;9.244;2022-11-11T03:33:46;1.80;99.90
3940;DHT22;1984;48.312;9.244;2022-11-11T03:36:12;1.80;99.90
3940;DHT22;1984;48.312;9.244;2022-11-11T03:38:38;1.90;99.90
3940;DHT22;1984;48.312;9.244;2022-11-11T03:41:03;1.90;99.90
3940;DHT22;1984;48.312;9.244;2022-11-11T03:43:31;1.90;99.90
3940;DHT22;1984;48.312;9.244;2022-11-11T03:45:58;1.90;99.90
3940;DHT22;1984;48.312;9.244;2022-11-11T03:48:25;1.90;99.90
3940;DHT22;1984;48.312;9.244;2022-11-11T03:50:52;1.90;99.90
3940;DHT22;1984;48.312;9.244;2022-11-11T03:53:18;1.80;99.90
3940;DHT22;1984;48.312;9.244;2022-11-11T03:55:44;1.70;99.90
3940;DHT22;1984;48.312;9.244;2022-11-11T03:58:10;1.70;99.90
3940;DHT22;1984;48.312;9.244;2022-11-11T04:00:36;1.70;99.90
3940;DHT22;1984;48.312;9.244;2022-11-11T04:05:55;1.70;99.90
3940;DHT22;1984;48.312;9.244;2022-11-11T04:08:41;1.80;99.90
3940;DHT22;1984;48.312;9.244;2022-11-11T04:11:31;1.80;99.90
3940;DHT22;1984;48.312;9.244;2022-11-11T04:14:00;1.80;99.90
3940;DHT22;1984;48.312;9.244;2022-11-11T04:16:46;1.90;99.90
3940;DHT22;1984;48.312;9.244;2022-11-11T04:19:11;1.80;99.90
3940;DHT22;1984;48.312;9.244;2022-11-11T04:21:55;1.80;99.90
3940;DHT22;1984;48.312;9.244;2022-11-11T04:24:21;1.80;99.90
3940;DHT22;1984;48.312;9.244;2022-11-11T04:27:07;1.70;99.90
3940;DHT22;1984;48.312;9.244;2022-11-11T04:29:33;1.80;99.90
3940;DHT22;1984;48.312;9.244;2022-11-11T04:32:08;1.80;99.90
3940;DHT22;1984;48.312;9.244;2022-11-11T04:34:58;1.80;99.90
3940;DHT22;1984;48.312;9.244;2022-11-11T04:37:26;1.80;99.90
3940;DHT22;1984;48.312;9.244;2022-11-11T04:39:51;1.90;99.90
3940;DHT22;1984;48.312;9.244;2022-11-11T04:42:36;1.90;99.90
3940;DHT22;1984;48.312;9.244;2022-11-11T04:45:04;1.80;99.90
3940;DHT22;1984;48.312;9.244;2022-11-11T04:48:09;1.80;99.90
3940;DHT22;1984;48.312;9.244;2022-11-11T04:50:39;1.90;99.90
3940;DHT22;1984;48.312;9.244;2022-11-11T04:53:08;1.80;99.90
3940;DHT22;1984;48.312;9.244;2022-11-11T04:55:35;1.80;99.90
3940;DHT22;1984;48.312;9.244;2022-11-11T04:58:21;1.70;99.90
3940;DHT22;1984;48.312;9.244;2022-11-11T05:00:46;1.80;99.90
3940;DHT22;1984;48.312;9.244;2022-11-11T05:03:13;1.80;99.90
3940;DHT22;1984;48.312;9.244;2022-11-11T05:05:47;1.80;99.90
3940;DHT22;1984;48.312;9.244;2022-11-11T05:08:33;1.70;99.90
3940;DHT22;1984;48.312;9.244;2022-11-11T05:11:18;1.70;99.90
3940;DHT22;1984;48.312;9.244;2022-11-11T05:13:44;1.70;99.90
3940;DHT22;1984;48.312;9.244;2022-11-11T05:16:30;1.70;99.90
3940;DHT22;1984;48.312;9.244;2022-11-11T05:19:15;1.80;99.90
3940;DHT22;1984;48.312;9.244;2022-11-11T05:22:17;1.80;99.90
3940;DHT22;1984;48.312;9.244;2022-11-11T05:24:43;1.80;99.90
3940;DHT22;1984;48.312;9.244;2022-11-11T05:27:28;1.80;99.90
3940;DHT22;1984;48.312;9.244;2022-11-11T05:29:53;1.80;99.90
3940;DHT22;1984;48.312;9.244;2022-11-11T05:32:21;1.70;99.90
3940;DHT22;1984;48.312;9.244;2022-11-11T05:34:47;1.80;99.90
3940;DHT22;1984;48.312;9.244;2022-11-11T05:37:13;1.80;99.90
3940;DHT22;1984;48.312;9.244;2022-11-11T05:39:39;1.70;99.90
3940;DHT22;1984;48.312;9.244;2022-11-11T05:42:05;1.80;99.90
3940;DHT22;1984;48.312;9.244;2022-11-11T05:44:31;1.80;99.90
3940;DHT22;1984;48.312;9.244;2022-11-11T05:46:57;1.80;99.90
3940;DHT22;1984;48.312;9.244;2022-11-11T05:49:22;1.80;99.90
3940;DHT22;1984;48.312;9.244;2022-11-11T05:51:49;1.90;99.90
3940;DHT22;1984;48.312;9.244;2022-11-11T05:54:15;1.80;99.90
3940;DHT22;1984;48.312;9.244;2022-11-11T05:56:41;1.80;99.90
3940;DHT22;1984;48.312;9.244;2022-11-11T05:59:07;1.90;99.90
3940;DHT22;1984;48.312;9.244;2022-11-11T06:01:33;1.80;99.90
3940;DHT22;1984;48.312;9.244;2022-11-11T06:03:58;1.80;99.90
3940;DHT22;1984;48.312;9.244;2022-11-11T06:06:24;1.70;99.90
3940;DHT22;1984;48.312;9.244;2022-11-11T06:08:50;1.70;99.90
3940;DHT22;1984;48.312;9.244;2022-11-11T06:11:16;1.60;99.90
3940;DHT22;1984;48.312;9.244;2022-11-11T06:13:41;1.60;99.90
3940;DHT22;1984;48.312;9.244;2022-11-11T06:16:07;1.60;99.90
3940;DHT22;1984;48.312;9.244;2022-11-11T06:18:33;1.60;99.90
3940;DHT22;1984;48.312;9.244;2022-11-11T06:20:59;1.60;99.90
3940;DHT22;1984;48.312;9.244;2022-11-11T06:23:25;1.60;99.90
3940;DHT22;1984;48.312;9.244;2022-11-11T06:25:51;1.60;99.90
3940;DHT22;1984;48.312;9.244;2022-11-11T06:28:36;1.60;99.90
3940;DHT22;1984;48.312;9.244;2022-11-11T06:31:02;1.60;99.90
3940;DHT22;1984;48.312;9.244;2022-11-11T06:33:28;1.70;99.90
3940;DHT22;1984;48.312;9.244;2022-11-11T06:35:53;1.80;99.90
3940;DHT22;1984;48.312;9.244;2022-11-11T06:38:19;1.80;99.90
3940;DHT22;1984;48.312;9.244;2022-11-11T06:40:45;1.80;99.90
3940;DHT22;1984;48.312;9.244;2022-11-11T06:43:11;1.90;99.90
3940;DHT22;1984;48.312;9.244;2022-11-11T06:45:37;2.00;99.90
3940;DHT22;1984;48.312;9.244;2022-11-11T06:48:03;2.10;99.90
3940;DHT22;1984;48.312;9.244;2022-11-11T06:50:30;2.20;99.90
3940;DHT22;1984;48.312;9.244;2022-11-11T06:52:56;2.30;99.90
3940;DHT22;1984;48.312;9.244;2022-11-11T06:55:27;2.40;99.90
3940;DHT22;1984;48.312;9.244;2022-11-11T06:57:53;2.50;99.90
3940;DHT22;1984;48.312;9.244;2022-11-11T07:00:19;2.50;99.90
3940;DHT22;1984;48.312;9.244;2022-11-11T07:02:44;2.60;99.90
3940;DHT22;1984;48.312;9.244;2022-11-11T07:05:12;2.60;99.90
3940;DHT22;1984;48.312;9.244;2022-11-11T07:07:37;2.60;99.90
3940;DHT22;1984;48.312;9.244;2022-11-11T07:10:03;2.80;99.90
3940;DHT22;1984;48.312;9.244;2022-11-11T07:12:31;2.90;99.90
3940;DHT22;1984;48.312;9.244;2022-11-11T07:14:57;3.10;99.90
3940;DHT22;1984;48.312;9.244;2022-11-11T07:17:22;3.20;99.90
3940;DHT22;1984;48.312;9.244;2022-11-11T07:19:48;3.40;99.90
3940;DHT22;1984;48.312;9.244;2022-11-11T07:22:13;3.50;99.90
3940;DHT22;1984;48.312;9.244;2022-11-11T07:24:39;3.80;99.90
3940;DHT22;1984;48.312;9.244;2022-11-11T07:27:05;4.00;99.90
3940;DHT22;1984;48.312;9.244;2022-11-11T07:29:30;4.30;99.90
3940;DHT22;1984;48.312;9.244;2022-11-11T07:31:56;4.50;99.90
3940;DHT22;1984;48.312;9.244;2022-11-11T07:34:21;4.80;99.90
3940;DHT22;1984;48.312;9.244;2022-11-11T07:36:47;5.00;99.90
3940;DHT22;1984;48.312;9.244;2022-11-11T07:39:13;5.20;99.90
3940;DHT22;1984;48.312;9.244;2022-11-11T07:41:38;5.50;99.90
3940;DHT22;1984;48.312;9.244;2022-11-11T07:44:04;5.80;99.90
3940;DHT22;1984;48.312;9.244;2022-11-11T07:46:29;6.00;99.90
3940;DHT22;1984;48.312;9.244;2022-11-11T07:48:55;6.20;99.90
3940;DHT22;1984;48.312;9.244;2022-11-11T07:51:20;6.30;99.90
3940;DHT22;1984;48.312;9.244;2022-11-11T07:53:46;6.70;99.90
3940;DHT22;1984;48.312;9.244;2022-11-11T07:56:11;7.10;99.90
3940;DHT22;1984;48.312;9.244;2022-11-11T07:58:37;7.60;99.90
3940;DHT22;1984;48.312;9.244;2022-11-11T08:01:02;8.30;99.90
3940;DHT22;1984;48.312;9.244;2022-11-11T08:03:28;8.80;99.90
3940;DHT22;1984;48.312;9.244;2022-11-11T08:05:56;9.30;99.90
3940;DHT22;1984;48.312;9.244;2022-11-11T08:08:22;9.40;99.90
3940;DHT22;1984;48.312;9.244;2022-11-11T08:10:54;9.50;99.90
3940;DHT22;1984;48.312;9.244;2022-11-11T08:13:20;9.50;99.90
3940;DHT22;1984;48.312;9.244;2022-11-11T08:16:04;9.50;99.90
3940;DHT22;1984;48.312;9.244;2022-11-11T08:18:31;9.30;99.90
3940;DHT22;1984;48.312;9.244;2022-11-11T08:20:57;9.50;99.90
3940;DHT22;1984;48.312;9.244;2022-11-11T08:23:23;9.60;99.90
3940;DHT22;1984;48.312;9.244;2022-11-11T08:26:01;9.50;99.90
3940;DHT22;1984;48.312;9.244;2022-11-11T08:28:27;9.60;99.90
3940;DHT22;1984;48.312;9.244;2022-11-11T08:30:53;9.80;99.90
3940;DHT22;1984;48.312;9.244;2022-11-11T08:33:20;9.90;99.90
3940;DHT22;1984;48.312;9.244;2022-11-11T08:35:46;10.10;99.90
3940;DHT22;1984;48.312;9.244;2022-11-11T08:38:11;10.50;99.90
3940;DHT22;1984;48.312;9.244;2022-11-11T08:40:38;11.10;99.90
3940;DHT22;1984;48.312;9.244;2022-11-11T08:43:03;11.70;99.90
3940;DHT22;1984;48.312;9.244;2022-11-11T08:45:29;11.90;99.90
3940;DHT22;1984;48.312;9.244;2022-11-11T08:47:54;12.10;99.90
3940;DHT22;1984;48.312;9.244;2022-11-11T08:50:20;12.20;99.90
3940;DHT22;1984;48.312;9.244;2022-11-11T08:52:50;12.30;99.90
3940;DHT22;1984;48.312;9.244;2022-11-11T08:55:17;12.50;99.90
3940;DHT22;1984;48.312;9.244;2022-11-11T08:57:43;12.90;99.90
3940;DHT22;1984;48.312;9.244;2022-11-11T09:00:10;13.40;99.90
3940;DHT22;1984;48.312;9.244;2022-11-11T09:02:36;13.70;99.90
3940;DHT22;1984;48.312;9.244;2022-11-11T09:05:02;14.10;99.90
3940;DHT22;1984;48.312;9.244;2022-11-11T09:07:28;14.30;99.90
3940;DHT22;1984;48.312;9.244;2022-11-11T09:09:53;14.70;99.90
3940;DHT22;1984;48.312;9.244;2022-11-11T09:12:19;15.00;99.90
3940;DHT22;1984;48.312;9.244;2022-11-11T09:14:45;15.40;99.90
3940;DHT22;1984;48.312;9.244;2022-11-11T09:17:10;15.80;99.90
3940;DHT22;1984;48.312;9.244;2022-11-11T09:19:36;16.00;99.90
3940;DHT22;1984;48.312;9.244;2022-11-11T09:22:02;16.00;99.90
3940;DHT22;1984;48.312;9.244;2022-11-11T09:24:27;16.10;99.90
3940;DHT22;1984;48.312;9.244;2022-11-11T09:26:53;16.30;99.90
3940;DHT22;1984;48.312;9.244;2022-11-11T09:29:19;16.70;99.90
3940;DHT22;1984;48.312;9.244;2022-11-11T09:31:45;16.80;99.90
3940;DHT22;1984;48.312;9.244;2022-11-11T09:34:11;17.00;99.90
3940;DHT22;1984;48.312;9.244;2022-11-11T09:36:36;17.20;99.90
3940;DHT22;1984;48.312;9.244;2022-11-11T09:39:02;17.50;99.90
3940;DHT22;1984;48.312;9.244;2022-11-11T09:41:41;17.80;99.90
3940;DHT22;1984;48.312;9.244;2022-11-11T09:55:20;20.20;99.90
3940;DHT22;1984;48.312;9.244;2022-11-11T09:57:59;20.70;99.90
3940;DHT22;1984;48.312;9.244;2022-11-11T10:00:35;21.00;99.90
3940;DHT22;1984;48.312;9.244;2022-11-11T10:03:17;21.60;99.90
3940;DHT22;1984;48.312;9.244;2022-11-11T10:06:04;21.90;99.90
3940;DHT22;1984;48.312;9.244;2022-11-11T10:08:36;22.60;99.90
3940;DHT22;1984;48.312;9.244;2022-11-11T10:11:14;22.60;99.90
3940;DHT22;1984;48.312;9.244;2022-11-11T10:13:42;22.30;99.90
3940;DHT22;1984;48.312;9.244;2022-11-11T10:19:29;21.70;99.90
3940;DHT22;1984;48.312;9.244;2022-11-11T10:21:59;22.40;99.90
3940;DHT22;1984;48.312;9.244;2022-11-11T10:24:32;22.90;99.80
3940;DHT22;1984;48.312;9.244;2022-11-11T10:27:06;22.90;99.40
3940;DHT22;1984;48.312;9.244;2022-11-11T10:29:42;23.50;98.60
3940;DHT22;1984;48.312;9.244;2022-11-11T10:32:21;23.40;98.30
3940;DHT22;1984;48.312;9.244;2022-11-11T10:34:48;22.90;98.00
3940;DHT22;1984;48.312;9.244;2022-11-11T10:42:22;21.60;99.40
3940;DHT22;1984;48.312;9.244;2022-11-11T10:44:48;20.90;99.90
3940;DHT22;1984;48.312;9.244;2022-11-11T10:47:43;20.30;99.90
3940;DHT22;1984;48.312;9.244;2022-11-11T10:55:54;18.50;99.90
3940;DHT22;1984;48.312;9.244;2022-11-11T10:58:29;18.20;99.90
3940;DHT22;1984;48.312;9.244;2022-11-11T11:01:00;18.00;99.90
3940;DHT22;1984;48.312;9.244;2022-11-11T11:03:51;17.80;99.90
3940;DHT22;1984;48.312;9.244;2022-11-11T11:06:23;17.50;99.90
3940;DHT22;1984;48.312;9.244;2022-11-11T11:09:16;17.00;99.90
3940;DHT22;1984;48.312;9.244;2022-11-11T11:12:09;16.50;99.90
3940;DHT22;1984;48.312;9.244;2022-11-11T11:14:40;16.20;99.90
3940;DHT22;1984;48.312;9.244;2022-11-11T11:17:12;15.60;99.90
3940;DHT22;1984;48.312;9.244;2022-11-11T11:19:38;15.50;99.90
3940;DHT22;1984;48.312;9.244;2022-11-11T11:22:03;15.50;99.90
3940;DHT22;1984;48.312;9.244;2022-11-11T11:24:31;15.40;99.90
3940;DHT22;1984;48.312;9.244;2022-11-11T11:27:00;15.40;99.90
3940;DHT22;1984;48.312;9.244;2022-11-11T11:29:35;15.30;99.90
3940;DHT22;1984;48.312;9.244;2022-11-11T11:34:48;15.30;99.90
3940;DHT22;1984;48.312;9.244;2022-11-11T11:37:14;15.30;99.90
3940;DHT22;1984;48.312;9.244;2022-11-11T11:39:40;15.50;99.90
3940;DHT22;1984;48.312;9.244;2022-11-11T11:42:06;15.40;99.90
3940;DHT22;1984;48.312;9.244;2022-11-11T11:44:37;15.40;99.90
3940;DHT22;1984;48.312;9.244;2022-11-11T11:55:18;15.50;99.90
3940;DHT22;1984;48.312;9.244;2022-11-11T12:05:25;15.20;99.90
3940;DHT22;1984;48.312;9.244;2022-11-11T12:10:53;14.80;99.90
3940;DHT22;1984;48.312;9.244;2022-11-11T12:19:08;14.70;99.90
3940;DHT22;1984;48.312;9.244;2022-11-11T12:22:15;14.60;99.90
3940;DHT22;1984;48.312;9.244;2022-11-11T12:24:50;14.50;99.90
3940;DHT22;1984;48.312;9.244;2022-11-11T12:27:21;14.30;99.90
3940;DHT22;1984;48.312;9.244;2022-11-11T12:30:07;14.20;99.90
3940;DHT22;1984;48.312;9.244;2022-11-11T12:44:03;14.20;99.90
3940;DHT22;1984;48.312;9.244;2022-11-11T12:57:39;13.90;99.90
3940;DHT22;1984;48.312;9.244;2022-11-11T13:00:17;13.80;99.90
3940;DHT22;1984;48.312;9.244;2022-11-11T13:10:42;13.20;99.90
3940;DHT22;1984;48.312;9.244;2022-11-11T13:13:33;13.10;99.90
3940;DHT22;1984;48.312;9.244;2022-11-11T13:16:02;13.20;99.90
3940;DHT22;1984;48.312;9.244;2022-11-11T13:21:03;13.20;99.90
3940;DHT22;1984;48.312;9.244;2022-11-11T13:23:31;13.20;99.90
3940;DHT22;1984;48.312;9.244;2022-11-11T13:26:01;13.20;99.90
3940;DHT22;1984;48.312;9.244;2022-11-11T13:28:33;13.10;99.90
3940;DHT22;1984;48.312;9.244;2022-11-11T13:31:20;13.10;99.90
3940;DHT22;1984;48.312;9.244;2022-11-11T13:33:53;13.10;99.90
3940;DHT22;1984;48.312;9.244;2022-11-11T13:36:23;13.00;99.90
3940;DHT22;1984;48.312;9.244;2022-11-11T13:38:56;12.90;99.90
3940;DHT22;1984;48.312;9.244;2022-11-11T13:41:32;12.80;99.90
3940;DHT22;1984;48.312;9.244;2022-11-11T13:44:01;12.70;99.90
3940;DHT22;1984;48.312;9.244;2022-11-11T13:46:38;12.60;99.90
3940;DHT22;1984;48.312;9.244;2022-11-11T13:49:09;12.50;99.90
3940;DHT22;1984;48.312;9.244;2022-11-11T13:51:44;12.50;99.90
3940;DHT22;1984;48.312;9.244;2022-11-11T13:54:33;12.50;99.90
3940;DHT22;1984;48.312;9.244;2022-11-11T13:57:20;12.30;99.90
3940;DHT22;1984;48.312;9.244;2022-11-11T14:02:32;12.40;99.90
3940;DHT22;1984;48.312;9.244;2022-11-11T14:12:49;12.10;99.90
3940;DHT22;1984;48.312;9.244;2022-11-11T14:20:46;12.00;99.90
3940;DHT22;1984;48.312;9.244;2022-11-11T14:44:58;11.20;99.90
3940;DHT22;1984;48.312;9.244;2022-11-11T14:47:37;11.20;99.90
3940;DHT22;1984;48.312;9.244;2022-11-11T14:52:53;10.90;99.90
3940;DHT22;1984;48.312;9.244;2022-11-11T14:55:34;10.70;99.90
3940;DHT22;1984;48.312;9.244;2022-11-11T14:58:13;10.70;99.90
3940;DHT22;1984;48.312;9.244;2022-11-11T15:03:27;10.60;99.90
3940;DHT22;1984;48.312;9.244;2022-11-11T15:17:24;10.40;99.90
3940;DHT22;1984;48.312;9.244;2022-11-11T15:25:49;10.10;99.90
3940;DHT22;1984;48.312;9.244;2022-11-11T15:28:36;10.10;99.90
3940;DHT22;1984;48.312;9.244;2022-11-11T15:31:24;9.90;99.90
3940;DHT22;1984;48.312;9.244;2022-11-11T15:34:55;9.70;99.90
3940;DHT22;1984;48.312;9.244;2022-11-11T15:37:14;9.70;99.90
3940;DHT22;1984;48.312;9.244;2022-11-11T15:39:47;9.70;99.90
3940;DHT22;1984;48.312;9.244;2022-11-11T15:42:33;9.60;99.90
3940;DHT22;1984;48.312;9.244;2022-11-11T15:45:02;9.50;99.90
3940;DHT22;1984;48.312;9.244;2022-11-11T15:47:34;9.50;99.90
3940;DHT22;1984;48.312;9.244;2022-11-11T15:50:01;9.40;99.90
3940;DHT22;1984;48.312;9.244;2022-11-11T15:52:31;9.40;99.90
3940;DHT22;1984;48.312;9.244;2022-11-11T15:54:58;9.20;99.90
3940;DHT22;1984;48.312;9.244;2022-11-11T15:57:34;9.10;99.90
3940;DHT22;1984;48.312;9.244;2022-11-11T16:00:03;9.00;99.90
3940;DHT22;1984;48.312;9.244;2022-11-11T16:02:43;8.90;99.90
3940;DHT22;1984;48.312;9.244;2022-11-11T16:05:21;8.80;99.90
3940;DHT22;1984;48.312;9.244;2022-11-11T16:07:48;8.60;99.90
3940;DHT22;1984;48.312;9.244;2022-11-11T16:10:22;8.50;99.90
3940;DHT22;1984;48.312;9.244;2022-11-11T16:12:51;8.50;99.90
3940;DHT22;1984;48.312;9.244;2022-11-11T16:17:53;8.20;99.90
3940;DHT22;1984;48.312;9.244;2022-11-11T16:20:26;8.10;99.90
3940;DHT22;1984;48.312;9.244;2022-11-11T16:22:56;8.00;99.90
3940;DHT22;1984;48.312;9.244;2022-11-11T16:25:24;7.90;99.90
3940;DHT22;1984;48.312;9.244;2022-11-11T16:27:51;7.80;99.90
3940;DHT22;1984;48.312;9.244;2022-11-11T16:30:33;7.70;99.90
3940;DHT22;1984;48.312;9.244;2022-11-11T16:32:59;7.60;99.90
3940;DHT22;1984;48.312;9.244;2022-11-11T16:37:56;7.50;99.90
3940;DHT22;1984;48.312;9.244;2022-11-11T16:40:26;7.40;99.90
3940;DHT22;1984;48.312;9.244;2022-11-11T16:42:52;7.40;99.90
3940;DHT22;1984;48.312;9.244;2022-11-11T16:45:20;7.40;99.90
3940;DHT22;1984;48.312;9.244;2022-11-11T16:47:49;7.30;99.90
3940;DHT22;1984;48.312;9.244;2022-11-11T16:50:20;7.30;99.90
3940;DHT22;1984;48.312;9.244;2022-11-11T16:53:01;7.30;99.90
3940;DHT22;1984;48.312;9.244;2022-11-11T16:55:38;7.20;99.90
3940;DHT22;1984;48.312;9.244;2022-11-11T16:58:14;7.20;99.90
3940;DHT22;1984;48.312;9.244;2022-11-11T17:00:41;7.10;99.90
3940;DHT22;1984;48.312;9.244;2022-11-11T17:03:14;7.10;99.90
3940;DHT22;1984;48.312;9.244;2022-11-11T17:05:55;7.00;99.90
3940;DHT22;1984;48.312;9.244;2022-11-11T17:08:38;7.00;99.90
3940;DHT22;1984;48.312;9.244;2022-11-11T17:11:07;6.90;99.90
3940;DHT22;1984;48.312;9.244;2022-11-11T17:13:33;6.90;99.90
3940;DHT22;1984;48.312;9.244;2022-11-11T17:16:01;6.80;99.90
3940;DHT22;1984;48.312;9.244;2022-11-11T17:18:31;6.80;99.90
3940;DHT22;1984;48.312;9.244;2022-11-11T17:20:57;6.70;99.90
3940;DHT22;1984;48.312;9.244;2022-11-11T17:23:23;6.70;99.90
3940;DHT22;1984;48.312;9.244;2022-11-11T17:25:53;6.70;99.90
3940;DHT22;1984;48.312;9.244;2022-11-11T17:28:19;6.70;99.90
3940;DHT22;1984;48.312;9.244;2022-11-11T17:30:45;6.60;99.90
3940;DHT22;1984;48.312;9.244;2022-11-11T17:33:10;6.60;99.90
3940;DHT22;1984;48.312;9.244;2022-11-11T17:35:36;6.60;99.90
3940;DHT22;1984;48.312;9.244;2022-11-11T17:38:02;6.50;99.90
3940;DHT22;1984;48.312;9.244;2022-11-11T17:40:27;6.50;99.90
3940;DHT22;1984;48.312;9.244;2022-11-11T17:42:53;6.40;99.90
3940;DHT22;1984;48.312;9.244;2022-11-11T17:45:18;6.30;99.90
3940;DHT22;1984;48.312;9.244;2022-11-11T17:47:44;6.30;99.90
3940;DHT22;1984;48.312;9.244;2022-11-11T17:50:09;6.20;99.90
3940;DHT22;1984;48.312;9.244;2022-11-11T17:52:35;6.00;99.90
3940;DHT22;1984;48.312;9.244;2022-11-11T17:55:00;5.90;99.90
3940;DHT22;1984;48.312;9.244;2022-11-11T17:57:26;5.90;99.90
3940;DHT22;1984;48.312;9.244;2022-11-11T17:59:52;5.80;99.90
3940;DHT22;1984;48.312;9.244;2022-11-11T18:02:17;5.70;99.90
3940;DHT22;1984;48.312;9.244;2022-11-11T18:04:44;5.70;99.90
3940;DHT22;1984;48.312;9.244;2022-11-11T18:07:10;5.60;99.90
3940;DHT22;1984;48.312;9.244;2022-11-11T18:09:35;5.60;99.90
3940;DHT22;1984;48.312;9.244;2022-11-11T18:12:01;5.60;99.90
3940;DHT22;1984;48.312;9.244;2022-11-11T18:14:27;5.50;99.90
3940;DHT22;1984;48.312;9.244;2022-11-11T18:16:52;5.50;99.90
3940;DHT22;1984;48.312;9.244;2022-11-11T18:19:18;5.50;99.90
3940;DHT22;1984;48.312;9.244;2022-11-11T18:21:43;5.40;99.90
3940;DHT22;1984;48.312;9.244;2022-11-11T18:24:09;5.40;99.90
3940;DHT22;1984;48.312;9.244;2022-11-11T18:26:36;5.40;99.90
3940;DHT22;1984;48.312;9.244;2022-11-11T18:29:06;5.40;99.90
3940;DHT22;1984;48.312;9.244;2022-11-11T18:31:32;5.50;99.90
3940;DHT22;1984;48.312;9.244;2022-11-11T18:33:58;5.50;99.90
3940;DHT22;1984;48.312;9.244;2022-11-11T18:36:23;5.60;99.90
3940;DHT22;1984;48.312;9.244;2022-11-11T18:38:49;5.60;99.90
3940;DHT22;1984;48.312;9.244;2022-11-11T18:41:17;5.70;99.90
3940;DHT22;1984;48.312;9.244;2022-11-11T18:43:45;5.70;99.90
3940;DHT22;1984;48.312;9.244;2022-11-11T18:46:23;5.70;99.90
3940;DHT22;1984;48.312;9.244;2022-11-11T18:49:00;5.80;99.90
3940;DHT22;1984;48.312;9.244;2022-11-11T18:51:28;5.80;99.90
3940;DHT22;1984;48.312;9.244;2022-11-11T18:53:55;5.80;99.90
3940;DHT22;1984;48.312;9.244;2022-11-11T18:56:22;5.70;99.90
3940;DHT22;1984;48.312;9.244;2022-11-11T18:58:53;5.70;99.90
3940;DHT22;1984;48.312;9.244;2022-11-11T19:01:22;5.60;99.90
3940;DHT22;1984;48.312;9.244;2022-11-11T19:03:50;5.70;99.90
3940;DHT22;1984;48.312;9.244;2022-11-11T19:06:17;5.70;99.90
3940;DHT22;1984;48.312;9.244;2022-11-11T19:08:44;5.80;99.90
3940;DHT22;1984;48.312;9.244;2022-11-11T19:11:10;5.80;99.90
3940;DHT22;1984;48.312;9.244;2022-11-11T19:13:36;5.80;99.90